createdAt,value
2019-05-01T00:03:09.948Z,101860.11
2019-05-01T00:05:58.820Z,101856.16
2019-05-01T00:08:46.476Z,101858.98
2019-05-01T00:11:34.105Z,101853.17
2019-05-01T00:14:21.882Z,101850.22
2019-05-01T00:17:09.652Z,101853.83
2019-05-01T00:19:57.215Z,101854.72
2019-05-01T00:22:45.420Z,101853.89
2019-05-01T00:25:33.450Z,101847.86
2019-05-01T00:28:21.114Z,101838.53
2019-05-01T00:31:08.642Z,101836.51
2019-05-01T00:33:56.262Z,101835.25
2019-05-01T00:36:44.110Z,101838.36
2019-05-01T00:39:31.688Z,101838.00
2019-05-01T00:42:19.796Z,101836.80
2019-05-01T00:45:07.612Z,101833.23
2019-05-01T00:47:55.946Z,101829.34
2019-05-01T00:50:43.385Z,101819.69
2019-05-01T00:53:31.040Z,101831.25
2019-05-01T00:56:37.984Z,101828.64
2019-05-01T00:59:35.018Z,101834.79
2019-05-01T01:02:47.448Z,101836.55
2019-05-01T01:05:35.152Z,101832.60
2019-05-01T01:08:22.664Z,101834.40
2019-05-01T01:11:10.307Z,101838.30
2019-05-01T01:13:58.534Z,101839.22
2019-05-01T01:16:46.031Z,101830.36
2019-05-01T01:19:33.853Z,101824.34
2019-05-01T01:22:22.152Z,101828.86
2019-05-01T01:25:10.042Z,101820.58
2019-05-01T01:27:57.611Z,101817.16
2019-05-01T01:30:55.685Z,101814.91
2019-05-01T01:33:33.884Z,101813.52
2019-05-01T01:36:21.840Z,101805.19
2019-05-01T01:39:09.622Z,101803.06
2019-05-01T01:41:57.086Z,101802.77
2019-05-01T01:44:58.499Z,101793.50
2019-05-01T01:48:03.907Z,101788.88
2019-05-01T01:50:51.738Z,101785.30
2019-05-01T01:53:39.897Z,101783.17
2019-05-01T01:56:27.874Z,101783.17
2019-05-01T01:59:15.549Z,101780.06
2019-05-01T02:02:07.584Z,101781.84
2019-05-01T02:05:10.331Z,101780.61
2019-05-01T02:07:58.165Z,101763.42
2019-05-01T02:10:45.917Z,101773.91
2019-05-01T02:13:33.535Z,101795.08
2019-05-01T02:16:20.934Z,101771.89
2019-05-01T02:19:11.595Z,101778.10
2019-05-01T02:21:59.542Z,101778.10
2019-05-01T02:24:47.753Z,101768.77
2019-05-01T02:27:40.423Z,101753.72
2019-05-01T02:30:28.352Z,101766.28
2019-05-01T02:33:16.232Z,101765.41
2019-05-01T02:36:04.417Z,101756.17
2019-05-01T02:38:52.464Z,101752.59
2019-05-01T02:41:41.899Z,101749.08
2019-05-01T02:44:30.415Z,101744.64
2019-05-01T02:47:21.422Z,101748.99
2019-05-01T02:50:10.660Z,101749.31
2019-05-01T02:52:58.420Z,101749.31
2019-05-01T02:55:53.909Z,101751.08
2019-05-01T02:58:41.454Z,101746.26
2019-05-01T03:01:45.561Z,101752.47
2019-05-01T03:04:16.977Z,101754.27
2019-05-01T03:07:05.159Z,101742.18
2019-05-01T03:09:52.864Z,101752.28
2019-05-01T03:12:40.601Z,101750.98
2019-05-01T03:15:28.341Z,101747.86
2019-05-01T03:18:26.868Z,101739.20
2019-05-01T03:21:22.332Z,101742.70
2019-05-01T03:24:17.083Z,101757.77
2019-05-01T03:27:04.869Z,101747.78
2019-05-01T03:29:52.967Z,101747.78
2019-05-01T03:32:41.151Z,101765.97
2019-05-01T03:35:29.432Z,101757.84
2019-05-01T03:38:17.259Z,101757.84
2019-05-01T03:41:05.215Z,101756.11
2019-05-01T03:43:52.834Z,101756.11
2019-05-01T03:46:40.947Z,101749.63
2019-05-01T03:49:28.601Z,101749.63
2019-05-01T03:52:16.875Z,101749.58
2019-05-01T03:55:05.064Z,101761.02
2019-05-01T03:57:53.154Z,101760.95
2019-05-01T04:01:00.091Z,101755.77
2019-05-01T04:03:50.841Z,101747.45
2019-05-01T04:06:41.715Z,101744.33
2019-05-01T04:09:29.579Z,101741.83
2019-05-01T04:12:17.163Z,101741.83
2019-05-01T04:15:05.041Z,101756.37
2019-05-01T04:17:53.432Z,101753.71
2019-05-01T04:20:40.899Z,101736.53
2019-05-01T04:23:31.595Z,101742.63
2019-05-01T04:26:18.956Z,101744.36
2019-05-01T04:29:28.877Z,101738.25
2019-05-01T04:32:22.199Z,101738.25
2019-05-01T04:35:29.407Z,101753.13
2019-05-01T04:38:16.887Z,101753.13
2019-05-01T04:41:05.005Z,101743.08
2019-05-01T04:43:52.709Z,101743.08
2019-05-01T04:46:40.691Z,101751.94
2019-05-01T04:49:28.406Z,101748.44
2019-05-01T04:52:16.194Z,101753.59
2019-05-01T04:55:04.321Z,101751.75
2019-05-01T04:57:51.868Z,101754.06
2019-05-01T05:00:39.468Z,101756.13
2019-05-01T05:03:27.722Z,101751.94
2019-05-01T05:06:15.352Z,101747.97
2019-05-01T05:09:03.052Z,101755.05
2019-05-01T05:11:54.392Z,101755.05
2019-05-01T05:14:42.344Z,101758.66
2019-05-01T05:17:30.515Z,101753.77
2019-05-01T05:20:18.148Z,101765.56
2019-05-01T05:23:06.033Z,101760.27
2019-05-01T05:25:54.193Z,101759.73
2019-05-01T05:28:41.803Z,101764.41
2019-05-01T05:31:30.014Z,101770.03
2019-05-01T05:34:19.524Z,101780.60
2019-05-01T05:37:14.540Z,101773.66
2019-05-01T05:40:02.962Z,101773.66
2019-05-01T05:42:50.376Z,101772.72
2019-05-01T05:45:38.092Z,101772.72
2019-05-01T05:48:25.876Z,101763.02
2019-05-01T05:51:21.540Z,101770.70
2019-05-01T05:54:34.714Z,101759.89
2019-05-01T05:57:29.710Z,101759.89
2019-05-01T06:00:26.193Z,101763.41
2019-05-01T06:03:35.000Z,101763.41
2019-05-01T06:06:28.706Z,101766.44
2019-05-01T06:09:17.350Z,101766.84
2019-05-01T06:12:13.257Z,101766.84
2019-05-01T06:15:21.286Z,101773.51
2019-05-01T06:18:22.327Z,101777.72
2019-05-01T06:21:36.638Z,101777.72
2019-05-01T06:24:35.634Z,101772.58
2019-05-01T06:27:19.553Z,101772.58
2019-05-01T06:30:11.010Z,101775.95
2019-05-01T06:32:56.419Z,101777.87
2019-05-01T06:35:44.759Z,101780.86
2019-05-01T06:38:36.313Z,101775.81
2019-05-01T06:41:19.658Z,101772.52
2019-05-01T06:44:20.271Z,101773.71
2019-05-01T06:47:29.016Z,101773.71
2019-05-01T06:50:21.191Z,101769.88
2019-05-01T06:53:09.711Z,101771.05
2019-05-01T06:55:57.804Z,101771.05
2019-05-01T06:58:45.513Z,101761.86
2019-05-01T07:01:33.042Z,101754.48
2019-05-01T07:04:20.969Z,101759.21
2019-05-01T07:07:23.971Z,101759.21
2019-05-01T07:09:56.857Z,101756.59
2019-05-01T07:12:44.536Z,101754.34
2019-05-01T07:15:32.787Z,101754.34
2019-05-01T07:18:23.714Z,101750.72
2019-05-01T07:21:08.339Z,101759.35
2019-05-01T07:23:55.789Z,101757.66
2019-05-01T07:26:43.933Z,101757.66
2019-05-01T07:29:32.902Z,101753.28
2019-05-01T07:32:20.009Z,101753.28
2019-05-01T07:35:07.504Z,101756.67
2019-05-01T07:37:57.525Z,101764.09
2019-05-01T07:40:43.606Z,101758.84
2019-05-01T07:44:00.988Z,101757.52
2019-05-01T07:47:03.601Z,101755.55
2019-05-01T07:49:54.628Z,101738.80
2019-05-01T07:52:41.320Z,101738.80
2019-05-01T07:55:38.894Z,101752.27
2019-05-01T07:58:26.727Z,101752.91
2019-05-01T08:01:27.375Z,101752.91
2019-05-01T08:04:19.722Z,101752.34
2019-05-01T08:07:04.170Z,101746.29
2019-05-01T08:09:51.947Z,101742.52
2019-05-01T08:12:40.195Z,101743.17
2019-05-01T08:15:32.325Z,101741.19
2019-05-01T08:18:24.017Z,101746.22
2019-05-01T08:21:28.913Z,101743.47
2019-05-01T08:24:17.994Z,101743.47
2019-05-01T08:27:04.907Z,101752.12
2019-05-01T08:30:00.476Z,101735.69
2019-05-01T08:33:16.388Z,101743.78
2019-05-01T08:36:06.729Z,101735.41
2019-05-01T08:38:51.943Z,101650.45
2019-05-01T08:41:39.742Z,101741.74
2019-05-01T08:44:29.596Z,101743.38
2019-05-01T08:47:25.944Z,101727.48
2019-05-01T08:50:13.701Z,101727.48
2019-05-01T08:53:01.675Z,101731.81
2019-05-01T08:55:49.425Z,101796.27
2019-05-01T08:58:37.155Z,101725.88
2019-05-01T09:01:25.061Z,101718.48
2019-05-01T09:04:13.489Z,101715.09
2019-05-01T09:07:01.003Z,101714.48
2019-05-01T09:09:48.770Z,101711.09
2019-05-01T09:12:36.512Z,101709.20
2019-05-01T09:15:24.157Z,101708.28
2019-05-01T09:18:11.820Z,101706.27
2019-05-01T09:20:59.517Z,101701.88
2019-05-01T09:23:51.373Z,101689.66
2019-05-01T09:26:45.457Z,101690.03
2019-05-01T09:29:37.966Z,101684.18
2019-05-01T09:32:25.786Z,101696.81
2019-05-01T09:35:15.971Z,101689.61
2019-05-01T09:38:01.671Z,101694.01
2019-05-01T09:40:49.234Z,101686.41
2019-05-01T09:43:37.155Z,101677.38
2019-05-01T09:46:25.520Z,101679.31
2019-05-01T09:49:14.336Z,101677.86
2019-05-01T09:52:23.509Z,101673.91
2019-05-01T09:55:34.153Z,101680.75
2019-05-01T09:58:21.729Z,101672.25
2019-05-01T10:01:09.482Z,101664.36
2019-05-01T10:03:57.292Z,101684.84
2019-05-01T10:06:47.736Z,101663.53
2019-05-01T10:09:33.775Z,101672.38
2019-05-01T10:12:21.967Z,101668.27
2019-05-01T10:15:09.627Z,101659.42
2019-05-01T10:17:57.883Z,101665.42
2019-05-01T10:20:45.419Z,101668.75
2019-05-01T10:23:33.703Z,101656.47
2019-05-01T10:26:23.958Z,101651.23
2019-05-01T10:29:36.500Z,101648.53
2019-05-01T10:32:25.378Z,101653.85
2019-05-01T10:35:42.794Z,101645.41
2019-05-01T10:38:25.925Z,101647.80
2019-05-01T10:41:13.742Z,101631.80
2019-05-01T10:44:01.584Z,101641.75
2019-05-01T10:46:50.002Z,101634.52
2019-05-01T10:49:37.498Z,101629.11
2019-05-01T10:52:25.153Z,101628.53
2019-05-01T10:55:12.677Z,101618.28
2019-05-01T10:58:03.207Z,101628.16
2019-05-01T11:00:50.152Z,101619.42
2019-05-01T11:03:38.017Z,101622.50
2019-05-01T11:06:26.209Z,101611.85
2019-05-01T11:09:13.926Z,101610.91
2019-05-01T11:12:02.047Z,101615.22
2019-05-01T11:14:49.767Z,101620.30
2019-05-01T11:17:37.711Z,101612.78
2019-05-01T11:20:25.498Z,101613.69
2019-05-01T11:23:12.996Z,101591.19
2019-05-01T11:26:00.555Z,101600.94
2019-05-01T11:28:48.351Z,101600.80
2019-05-01T11:31:42.903Z,101595.94
2019-05-01T11:35:02.565Z,101589.87
2019-05-01T11:37:57.486Z,101594.70
2019-05-01T11:40:49.183Z,101599.09
2019-05-01T11:43:45.899Z,101578.58
2019-05-01T11:46:36.685Z,101575.63
2019-05-01T11:49:24.776Z,101572.25
2019-05-01T11:52:12.545Z,101569.97
2019-05-01T11:55:00.302Z,101567.99
2019-05-01T11:57:48.762Z,101559.16
2019-05-01T12:00:36.503Z,101558.17
2019-05-01T12:03:24.206Z,101556.38
2019-05-01T12:06:22.338Z,101563.70
2019-05-01T12:09:02.283Z,101561.54
2019-05-01T12:11:50.196Z,101559.40
2019-05-01T12:14:38.737Z,101551.48
2019-05-01T12:17:30.252Z,101564.50
2019-05-01T12:20:19.058Z,101552.50
2019-05-01T12:23:06.597Z,101554.53
2019-05-01T12:25:54.289Z,101538.09
2019-05-01T12:28:41.924Z,101545.53
2019-05-01T12:31:31.257Z,101540.71
2019-05-01T12:34:18.107Z,101530.82
2019-05-01T12:37:26.393Z,101534.27
2019-05-01T12:40:15.832Z,101531.23
2019-05-01T12:43:03.726Z,101528.30
2019-05-01T12:45:51.667Z,101527.45
2019-05-01T12:48:40.129Z,101515.56
2019-05-01T12:51:27.939Z,101516.25
2019-05-01T12:54:26.009Z,101521.65
2019-05-01T12:57:14.201Z,101515.34
2019-05-01T13:00:08.495Z,101507.14
2019-05-01T13:02:49.451Z,101503.30
2019-05-01T13:05:37.167Z,101511.02
2019-05-01T13:08:24.705Z,101495.20
2019-05-01T13:11:13.144Z,101499.45
2019-05-01T13:14:00.632Z,101503.30
2019-05-01T13:16:48.244Z,101485.36
2019-05-01T13:19:36.053Z,101483.61
2019-05-01T13:22:23.685Z,101474.20
2019-05-01T13:25:11.279Z,101476.71
2019-05-01T13:28:13.701Z,101483.43
2019-05-01T13:31:11.516Z,101473.56
2019-05-01T13:33:59.233Z,101470.50
2019-05-01T13:36:46.823Z,101464.14
2019-05-01T13:39:34.687Z,101453.45
2019-05-01T13:42:22.575Z,101468.05
2019-05-01T13:45:10.236Z,101462.05
2019-05-01T13:47:57.750Z,101455.34
2019-05-01T13:50:45.317Z,101443.47
2019-05-01T13:53:33.067Z,101458.36
2019-05-01T13:56:21.270Z,101451.98
2019-05-01T13:59:10.655Z,101440.25
2019-05-01T14:01:58.472Z,101432.91
2019-05-01T14:04:46.278Z,101449.08
2019-05-01T14:07:34.217Z,101435.17
2019-05-01T14:10:22.066Z,101433.13
2019-05-01T14:13:09.791Z,101426.07
2019-05-01T14:15:57.443Z,101422.73
2019-05-01T14:18:44.859Z,101420.96
2019-05-01T14:21:37.651Z,101420.27
2019-05-01T14:24:32.986Z,101418.93
2019-05-01T14:27:21.246Z,101409.49
2019-05-01T14:30:09.411Z,101412.71
2019-05-01T14:32:57.686Z,101426.34
2019-05-01T14:35:45.503Z,101413.27
2019-05-01T14:38:33.694Z,101403.97
2019-05-01T14:41:21.275Z,101394.53
2019-05-01T14:44:08.899Z,101399.94
2019-05-01T14:46:57.217Z,101398.33
2019-05-01T14:49:44.885Z,101388.78
2019-05-01T14:52:32.757Z,101392.63
2019-05-01T14:55:20.353Z,101387.45
2019-05-01T14:58:08.073Z,101387.35
2019-05-01T15:00:56.415Z,101387.14
2019-05-01T15:03:44.677Z,101383.97
2019-05-01T15:06:32.398Z,101379.77
2019-05-01T15:09:20.175Z,101383.55
2019-05-01T15:12:07.631Z,101383.20
2019-05-01T15:15:17.243Z,101372.41
2019-05-01T15:18:10.725Z,101370.16
2019-05-01T15:20:59.065Z,101366.44
2019-05-01T15:23:53.629Z,101364.70
2019-05-01T15:26:35.436Z,101367.15
2019-05-01T15:29:23.255Z,101361.75
2019-05-01T15:32:11.070Z,101366.05
2019-05-01T15:34:58.789Z,101361.50
2019-05-01T15:37:56.484Z,101352.84
2019-05-01T15:40:53.371Z,101352.42
2019-05-01T15:44:13.125Z,101345.39
2019-05-01T15:47:00.637Z,101353.95
2019-05-01T15:49:48.059Z,101354.42
2019-05-01T15:52:36.421Z,101350.48
2019-05-01T15:55:24.084Z,101355.94
2019-05-01T15:58:12.333Z,101343.60
2019-05-01T16:00:59.915Z,101355.22
2019-05-01T16:03:47.616Z,101336.98
2019-05-01T16:06:35.789Z,101338.36
2019-05-01T16:09:24.075Z,101348.95
2019-05-01T16:12:36.436Z,101342.16
2019-05-01T16:15:29.377Z,101326.36
2019-05-01T16:18:16.845Z,101326.20
2019-05-01T16:21:04.591Z,101325.81
2019-05-01T16:23:52.342Z,101321.87
2019-05-01T16:26:40.457Z,101319.62
2019-05-01T16:29:27.857Z,101315.37
2019-05-01T16:32:15.564Z,101316.48
2019-05-01T16:35:02.869Z,101324.12
2019-05-01T16:37:50.673Z,101328.03
2019-05-01T16:40:59.325Z,101307.49
2019-05-01T16:43:46.613Z,101303.19
2019-05-01T16:46:34.628Z,101306.94
2019-05-01T16:49:22.602Z,101305.80
2019-05-01T16:52:10.279Z,101301.05
2019-05-01T16:54:59.492Z,101304.84
2019-05-01T16:57:45.401Z,101306.19
2019-05-01T17:01:04.132Z,101297.78
2019-05-01T17:04:02.201Z,101287.52
2019-05-01T17:07:01.765Z,101292.70
2019-05-01T17:10:08.478Z,101281.29
2019-05-01T17:12:55.967Z,101278.28
2019-05-01T17:15:44.559Z,101282.23
2019-05-01T17:18:32.118Z,101289.05
2019-05-01T17:21:20.583Z,101288.73
2019-05-01T17:24:08.727Z,101292.53
2019-05-01T17:26:56.908Z,101283.55
2019-05-01T17:29:45.319Z,101291.05
2019-05-01T17:32:33.059Z,101293.25
2019-05-01T17:35:20.584Z,101284.17
2019-05-01T17:38:08.245Z,101286.14
2019-05-01T17:40:56.149Z,101292.06
2019-05-01T17:43:44.768Z,101289.47
2019-05-01T17:46:31.613Z,101291.26
2019-05-01T17:49:19.130Z,101285.31
2019-05-01T17:52:07.255Z,101285.31
2019-05-01T17:54:55.021Z,101279.10
2019-05-01T17:57:42.545Z,101286.65
2019-05-01T18:00:47.694Z,101289.22
2019-05-01T18:03:57.809Z,101282.81
2019-05-01T18:06:48.190Z,101297.91
2019-05-01T18:09:36.150Z,101282.23
2019-05-01T18:12:28.416Z,101282.79
2019-05-01T18:15:12.007Z,101276.28
2019-05-01T18:17:59.919Z,101288.81
2019-05-01T18:20:47.522Z,101287.56
2019-05-01T18:23:53.435Z,101287.60
2019-05-01T18:26:59.307Z,101282.91
2019-05-01T18:29:48.876Z,101282.61
2019-05-01T18:32:46.529Z,101288.50
2019-05-01T18:35:29.739Z,101279.22
2019-05-01T18:38:31.318Z,101281.57
2019-05-01T18:41:23.210Z,101283.45
2019-05-01T18:44:11.431Z,101276.77
2019-05-01T18:46:58.273Z,101278.08
2019-05-01T18:49:45.886Z,101284.56
2019-05-01T18:52:33.583Z,101279.27
2019-05-01T18:55:25.898Z,101285.05
2019-05-01T18:58:09.535Z,101286.34
2019-05-01T19:00:57.639Z,101282.84
2019-05-01T19:03:45.247Z,101291.66
2019-05-01T19:06:40.952Z,101289.95
2019-05-01T19:09:29.734Z,101259.08
2019-05-01T19:12:09.529Z,101291.96
2019-05-01T19:15:00.300Z,101290.83
2019-05-01T19:17:45.680Z,101295.54
2019-05-01T19:20:34.324Z,101287.83
2019-05-01T19:23:22.092Z,101292.88
2019-05-01T19:26:09.621Z,101293.48
2019-05-01T19:28:57.422Z,101293.42
2019-05-01T19:31:45.697Z,101294.35
2019-05-01T19:34:33.346Z,101301.80
2019-05-01T19:37:22.063Z,101303.39
2019-05-01T19:40:10.699Z,101306.02
2019-05-01T19:43:00.136Z,101304.41
2019-05-01T19:45:46.292Z,101305.63
2019-05-01T19:48:34.039Z,101298.89
2019-05-01T19:51:24.014Z,101305.45
2019-05-01T19:54:09.490Z,101302.74
2019-05-01T19:56:56.847Z,101299.95
2019-05-01T19:59:44.822Z,101297.87
2019-05-01T20:02:32.471Z,101306.22
2019-05-01T20:05:21.969Z,101302.75
2019-05-01T20:08:08.143Z,101298.31
2019-05-01T20:10:56.364Z,101296.98
2019-05-01T20:13:44.453Z,101301.70
2019-05-01T20:16:32.005Z,101307.75
2019-05-01T20:19:19.698Z,101308.13
2019-05-01T20:22:07.909Z,101314.13
2019-05-01T20:24:56.081Z,101311.88
2019-05-01T20:27:47.734Z,101310.88
2019-05-01T20:30:32.174Z,101314.97
2019-05-01T20:33:19.783Z,101311.20
2019-05-01T20:36:07.644Z,101310.16
2019-05-01T20:38:55.159Z,101311.08
2019-05-01T20:41:43.271Z,101277.48
2019-05-01T20:44:31.465Z,101312.55
2019-05-01T20:47:34.151Z,101309.64
2019-05-01T20:50:06.805Z,101308.05
2019-05-01T20:52:54.435Z,101305.47
2019-05-01T20:55:42.512Z,101310.77
2019-05-01T20:58:30.712Z,101306.33
2019-05-01T21:01:18.383Z,101309.57
2019-05-01T21:04:16.262Z,101302.95
2019-05-01T21:07:19.830Z,101290.33
2019-05-01T21:10:07.267Z,101294.97
2019-05-01T21:12:54.870Z,101294.97
2019-05-01T21:15:42.832Z,101294.80
2019-05-01T21:18:30.864Z,101292.09
2019-05-01T21:21:18.475Z,101294.75
2019-05-01T21:24:05.881Z,101301.37
2019-05-01T21:26:54.234Z,101295.36
2019-05-01T21:29:42.017Z,101300.35
2019-05-01T21:32:29.818Z,101296.04
2019-05-01T21:35:17.620Z,101289.33
2019-05-01T21:38:05.640Z,101289.33
2019-05-01T21:40:53.887Z,101279.97
2019-05-01T21:43:42.517Z,101278.84
2019-05-01T21:46:28.789Z,101278.84
2019-05-01T21:49:17.139Z,101284.53
2019-05-01T21:52:07.232Z,101282.72
2019-05-01T21:54:55.417Z,101269.80
2019-05-01T21:57:40.910Z,101273.73
2019-05-01T22:00:32.126Z,101278.24
2019-05-01T22:03:21.577Z,101269.48
2019-05-01T22:06:11.344Z,101261.63
2019-05-01T22:08:55.042Z,101259.85
2019-05-01T22:11:44.355Z,101259.85
2019-05-01T22:14:42.139Z,101252.98
2019-05-01T22:18:00.634Z,101252.98
2019-05-01T22:20:52.233Z,101249.73
2019-05-01T22:24:17.797Z,101250.97
2019-05-01T22:27:08.272Z,101246.63
2019-05-01T22:30:05.778Z,101244.19
2019-05-01T22:32:51.419Z,101244.19
2019-05-01T22:35:42.916Z,101236.61
2019-05-01T22:38:31.316Z,101244.24
2019-05-01T22:41:18.918Z,101244.24
2019-05-01T22:44:06.537Z,101233.38
2019-05-01T22:46:54.426Z,101238.67
2019-05-01T22:49:42.922Z,101231.70
2019-05-01T22:52:30.676Z,101232.73
2019-05-01T22:55:20.452Z,101231.52
2019-05-01T22:58:05.896Z,101231.52
2019-05-01T23:00:55.631Z,101231.52
2019-05-01T23:04:05.640Z,101231.66
2019-05-01T23:06:53.284Z,101230.44
2019-05-01T23:09:40.755Z,101220.50
2019-05-01T23:12:29.642Z,101216.45
2019-05-01T23:15:20.590Z,101216.45
2019-05-01T23:18:10.657Z,101213.88
2019-05-01T23:20:56.567Z,101215.91
2019-05-01T23:23:44.656Z,101213.81
2019-05-01T23:26:32.296Z,101204.89
2019-05-01T23:29:19.946Z,101204.89
2019-05-01T23:32:07.907Z,101193.88
2019-05-01T23:34:55.821Z,101196.16
2019-05-01T23:37:49.621Z,101197.99
2019-05-01T23:40:37.155Z,101197.99
2019-05-01T23:43:27.897Z,101183.20
2019-05-01T23:46:13.346Z,101190.20
2019-05-01T23:49:01.353Z,101183.95
2019-05-01T23:51:49.562Z,101177.59
2019-05-01T23:54:37.065Z,101177.59
2019-05-01T23:57:24.806Z,101167.14
